»·PEaware :: N1180M KHHR-KPMD

N1180M :: KHHR-KPMD

FLIGHT INFORMATION

Flight Status: Arrived
Operator: Privately registered:
United States
More flights under this callsign
Pilot: Anonymous 33001 (33001)
Aircraft: CESSNA 172 SKYHAWK
(C172)
More flights by this aircraft type
Origin: KHHR Northrop/Hawthorne Mun
United States
Destination: KPMD Palmdale AF Plant 42
United States
More flights between these airports :: More routes between these airports
Route: SPACX2 SPACX LAX V165 LANGE V518 PMD
File this flight plan on PilotEdge
Remarks: / / SCPT30 - ILS RWY 25
Altitude:
(Current/Filed)
9,000ft
Speed:
(Current/Filed)
105kts
Departed: 30-Jan-22 11:23 AM
Arrived: 30-Jan-22 12:09 PM
Distance/Time
Traveled:
44nm/0:46
Distance/Time
To Go:
Arrived

Flight Plot

Page will automatically refresh every two minutes.

Flight plan parsing failed; only flown route is shown


Map Options




Map Legend


Flown Route
Filed Route
Departure Airport
Arrival Airport
Navaid (VOR, NDB)
Fix

Horizontal Profiles

Position Reports

Time Latitude Longitude Heading Altitude Ground
Speed
30-Jan-22 11:04 33.921726 -118.334512 345 63ft 0kts
30-Jan-22 11:05 33.921726 -118.334512 345 63ft 0kts
30-Jan-22 11:06 33.921726 -118.334512 345 63ft 0kts
30-Jan-22 11:07 33.921726 -118.334512 345 63ft 0kts
30-Jan-22 11:08 33.921726 -118.334512 345 63ft 0kts
30-Jan-22 11:09 33.921726 -118.334512 345 63ft 0kts
30-Jan-22 11:10 33.921726 -118.334512 345 63ft 0kts
30-Jan-22 11:11 33.921726 -118.334512 345 63ft 0kts
30-Jan-22 11:12 33.921726 -118.334512 345 63ft 0kts
30-Jan-22 11:13 33.921726 -118.334512 345 63ft 0kts
30-Jan-22 11:14 33.921726 -118.334512 345 63ft 0kts
30-Jan-22 11:15 33.921726 -118.334512 345 63ft 0kts
30-Jan-22 11:16 33.921726 -118.334512 345 63ft 0kts
30-Jan-22 11:17 33.922537 -118.333101 86 64ft 8kts
30-Jan-22 11:18 33.922691 -118.329763 85 69ft 16kts
30-Jan-22 11:19 33.922772 -118.327310 50 68ft 0kts
30-Jan-22 11:20 33.922772 -118.327310 50 68ft 0kts
30-Jan-22 11:21 33.922772 -118.327310 50 68ft 0kts
30-Jan-22 11:22 33.923007 -118.331846 268 67ft 67kts
30-Jan-22 11:23 33.918128 -118.354559 214 649ft 72kts
30-Jan-22 11:24 33.900858 -118.367440 206 1227ft 75kts
30-Jan-22 11:25 33.882806 -118.381157 212 1794ft 78kts
30-Jan-22 11:26 33.862495 -118.396372 217 2482ft 89kts
30-Jan-22 11:27 33.843072 -118.417099 212 3167ft 94kts
30-Jan-22 11:28 33.825596 -118.410968 53 3709ft 99kts
30-Jan-22 11:29 33.849298 -118.402158 349 4300ft 84kts
30-Jan-22 11:30 33.873106 -118.410945 346 4797ft 94kts
30-Jan-22 11:31 33.900413 -118.421993 340 4821ft 108kts
30-Jan-22 11:32 33.928566 -118.430357 350 4759ft 104kts
30-Jan-22 11:33 33.956765 -118.436759 346 4825ft 104kts
30-Jan-22 11:34 33.984265 -118.446123 343 4914ft 103kts
30-Jan-22 11:35 34.011445 -118.457382 340 4966ft 103kts
30-Jan-22 11:36 34.039423 -118.470089 341 4788ft 117kts
30-Jan-22 11:37 34.070267 -118.479576 359 4709ft 101kts
30-Jan-22 11:38 34.097176 -118.467277 18 4861ft 104kts
30-Jan-22 11:39 34.124875 -118.455256 12 5105ft 99kts
30-Jan-22 11:40 34.153326 -118.450937 3 5523ft 103kts
30-Jan-22 11:41 34.182449 -118.449678 359 5946ft 104kts
30-Jan-22 11:42 34.211771 -118.452371 357 6339ft 105kts
30-Jan-22 11:43 34.240861 -118.453826 355 6755ft 102kts
30-Jan-22 11:44 34.269441 -118.455728 355 7165ft 102kts
30-Jan-22 11:45 34.297557 -118.457865 357 7585ft 100kts
30-Jan-22 11:46 34.325422 -118.457807 359 7971ft 101kts
30-Jan-22 11:47 34.353401 -118.456322 1 8220ft 101kts
30-Jan-22 11:48 34.380074 -118.454312 359 8750ft 93kts
30-Jan-22 11:49 34.407816 -118.456321 354 8873ft 103kts
30-Jan-22 11:50 34.437086 -118.455148 29 8745ft 110kts
30-Jan-22 11:51 34.447079 -118.420030 54 8754ft 103kts
30-Jan-22 11:52 34.460164 -118.391182 75 8818ft 106kts
30-Jan-22 11:53 34.471130 -118.359170 49 8858ft 107kts
30-Jan-22 11:54 34.489286 -118.329981 48 8849ft 108kts
30-Jan-22 11:55 34.498712 -118.296794 86 8847ft 110kts
30-Jan-22 11:56 34.501418 -118.261425 62 8851ft 101kts
30-Jan-22 11:57 34.519939 -118.235097 46 8798ft 109kts
30-Jan-22 11:58 34.537032 -118.204107 54 8291ft 108kts
30-Jan-22 11:59 34.554609 -118.174892 55 7236ft 105kts
30-Jan-22 12:00 34.570816 -118.147685 26 5996ft 101kts
30-Jan-22 12:01 34.593451 -118.127098 36 5237ft 113kts
30-Jan-22 12:02 34.619763 -118.103960 40 4762ft 122kts
30-Jan-22 12:03 34.646864 -118.086945 18 4537ft 112kts
30-Jan-22 12:04 34.643031 -118.075276 234 3983ft 118kts
30-Jan-22 12:05 34.645527 -118.111660 283 3371ft 102kts
30-Jan-22 12:06 34.633402 -118.130236 156 3153ft 83kts
30-Jan-22 12:07 34.630937 -118.106636 84 2537ft 56kts
30-Jan-22 12:08 34.632102 -118.104697 0 2535ft 0kts
30-Jan-22 12:09 34.633271 -118.103928 83 2537ft 16kts
30-Jan-22 12:10 34.633635 -118.098442 61 2528ft 13kts
30-Jan-22 12:11 34.636426 -118.097620 90 2520ft 0kts
30-Jan-22 12:12 34.636425 -118.097574 90 2520ft 0kts
30-Jan-22 12:13 34.636425 -118.097574 90 2520ft 0kts

Navigation Log

Ident Type
Flight plan parsing failed, navigation log unavailable